Time;durP1;ratioP1;P1;durP2;ratioP2;P2;SDS_P1;SDS_P2;PMS_P1;PMS_P2;Temp;Humidity;BMP_temperature;BMP_pressure;BME280_temperature;BME280_humidity;BME280_pressure;Samples;Min_cycle;Max_cycle;Signal;HPM_P1;HPM_P2
2022/09/05 00:00:16;;;;;;;1.05;0.80;;;13.50;99.90;;;;;;5044120;28;20915;-77
2022/09/05 00:03:21;;;;;;;0.70;0.70;;;13.50;99.90;;;;;;5078559;28;20438;-77
2022/09/05 00:06:23;;;;;;;0.57;0.57;;;13.50;99.90;;;;;;5065113;28;20857;-77
2022/09/05 00:08:56;;;;;;;0.43;0.43;;;13.50;99.90;;;;;;5035680;28;20453;-77
2022/09/05 00:11:54;;;;;;;0.60;0.60;;;13.60;99.90;;;;;;5061759;28;20465;-76
2022/09/05 00:14:42;;;;;;;0.88;0.88;;;13.60;99.90;;;;;;5042750;28;20919;-77
2022/09/05 00:18:06;;;;;;;1.42;0.60;;;13.60;99.90;;;;;;5042966;28;20434;-77
2022/09/05 00:20:55;;;;;;;0.70;0.70;;;13.70;99.90;;;;;;5067577;28;20414;-77
2022/09/05 00:23:51;;;;;;;0.60;0.60;;;13.80;99.90;;;;;;5047255;28;20432;-77
2022/09/05 00:26:49;;;;;;;0.70;0.70;;;13.90;99.90;;;;;;5067015;28;20419;-76
2022/09/05 00:29:22;;;;;;;0.65;0.65;;;14.00;99.90;;;;;;5049071;28;20446;-77
2022/09/05 00:32:35;;;;;;;0.80;0.80;;;13.90;99.90;;;;;;5054130;28;20868;-77
2022/09/05 00:35:28;;;;;;;0.70;0.70;;;13.80;99.90;;;;;;5055993;28;20484;-77
2022/09/05 00:38:08;;;;;;;0.70;0.70;;;13.90;99.90;;;;;;5062714;28;20494;-77
2022/09/05 00:40:36;;;;;;;0.90;0.90;;;13.90;99.90;;;;;;5079295;28;20733;-77
2022/09/05 00:43:18;;;;;;;0.77;0.77;;;13.90;99.90;;;;;;5072310;28;20427;-77
2022/09/05 00:46:12;;;;;;;0.60;0.60;;;13.80;99.90;;;;;;5064307;28;20840;-77
2022/09/05 00:49:25;;;;;;;0.50;0.50;;;13.90;99.90;;;;;;5069349;28;20432;-77
2022/09/05 00:52:04;;;;;;;0.83;0.83;;;13.90;99.90;;;;;;5051164;28;20463;-77
2022/09/05 00:55:13;;;;;;;0.77;0.77;;;13.90;99.90;;;;;;5065434;28;20429;-77
2022/09/05 00:58:20;;;;;;;1.08;0.73;;;13.80;99.90;;;;;;5028195;28;20441;-77
2022/09/05 01:01:28;;;;;;;0.60;0.60;;;13.60;99.90;;;;;;5002404;28;20431;-77
2022/09/05 01:03:57;;;;;;;0.60;0.60;;;13.40;99.90;;;;;;4936051;29;20548;-77
2022/09/05 01:06:41;;;;;;;0.90;0.90;;;13.30;99.90;;;;;;5012302;28;20429;-77
2022/09/05 01:09:43;;;;;;;0.70;0.70;;;13.20;99.90;;;;;;5019064;28;20931;-77
2022/09/05 01:12:30;;;;;;;1.38;0.98;;;13.10;99.90;;;;;;5013976;28;20480;-77
2022/09/05 01:15:11;;;;;;;0.75;0.75;;;13.00;99.90;;;;;;5028425;28;20547;-77
2022/09/05 01:17:57;;;;;;;0.80;0.80;;;13.10;99.90;;;;;;5011341;28;20430;-77
2022/09/05 01:20:50;;;;;;;0.80;0.80;;;13.30;99.90;;;;;;5015481;28;20423;-77
2022/09/05 01:23:35;;;;;;;0.60;0.60;;;13.40;99.90;;;;;;5021065;28;20451;-77
2022/09/05 01:26:56;;;;;;;0.70;0.70;;;13.70;99.90;;;;;;5029150;28;20441;-76
2022/09/05 01:29:48;;;;;;;0.73;0.70;;;13.80;99.90;;;;;;4994677;28;20438;-77
2022/09/05 01:32:50;;;;;;;0.63;0.63;;;13.70;99.90;;;;;;4985022;28;20494;-77
2022/09/05 01:35:57;;;;;;;0.70;0.70;;;13.50;99.90;;;;;;4991534;28;20427;-76
2022/09/05 01:38:53;;;;;;;0.60;0.60;;;13.30;99.90;;;;;;4984349;28;20765;-76
2022/09/05 01:41:56;;;;;;;1.40;0.77;;;13.10;99.90;;;;;;4984373;28;20562;-76
2022/09/05 01:44:36;;;;;;;0.60;0.60;;;12.90;99.90;;;;;;4984996;28;20434;-76
2022/09/05 01:47:14;;;;;;;0.82;0.82;;;12.80;99.90;;;;;;4987979;28;20452;-77
2022/09/05 01:49:58;;;;;;;0.73;0.73;;;12.70;99.90;;;;;;4980915;28;20467;-77
2022/09/05 01:53:03;;;;;;;0.50;0.50;;;12.70;99.90;;;;;;4978120;28;21269;-77
2022/09/05 01:55:53;;;;;;;0.70;0.70;;;12.80;99.90;;;;;;4985820;28;21010;-77
2022/09/05 01:58:49;;;;;;;1.00;0.90;;;12.90;99.90;;;;;;4988665;28;20561;-76
2022/09/05 02:01:37;;;;;;;0.93;0.68;;;13.00;99.90;;;;;;4972641;28;21052;-77
2022/09/05 02:04:43;;;;;;;0.52;0.52;;;13.20;99.90;;;;;;5038846;28;20944;-77
2022/09/05 02:07:47;;;;;;;0.60;0.60;;;13.30;99.90;;;;;;5049430;28;20527;-77
2022/09/05 02:10:33;;;;;;;0.57;0.57;;;13.30;99.90;;;;;;5064699;28;20519;-77
2022/09/05 02:13:20;;;;;;;1.10;0.73;;;13.30;99.90;;;;;;5063552;28;20438;-77
2022/09/05 02:16:12;;;;;;;0.73;0.73;;;13.40;99.90;;;;;;5045729;28;20514;-77
2022/09/05 02:19:08;;;;;;;0.70;0.70;;;13.50;99.90;;;;;;5064780;28;20431;-77
2022/09/05 02:21:48;;;;;;;1.30;0.90;;;13.50;99.90;;;;;;5044914;28;20436;-77
2022/09/05 02:24:43;;;;;;;0.75;0.75;;;13.60;99.90;;;;;;5052957;28;20431;-77
2022/09/05 02:27:30;;;;;;;1.00;1.00;;;13.60;99.90;;;;;;5051006;28;20788;-77
2022/09/05 02:30:22;;;;;;;0.63;0.63;;;13.60;99.90;;;;;;5067014;28;20424;-78
2022/09/05 02:33:16;;;;;;;0.90;0.90;;;13.60;99.90;;;;;;5068527;28;20921;-77
2022/09/05 02:36:11;;;;;;;1.05;1.05;;;13.60;99.90;;;;;;5048993;28;20451;-77
2022/09/05 02:38:47;;;;;;;0.90;0.90;;;13.60;99.90;;;;;;5046263;28;20437;-77
2022/09/05 02:41:45;;;;;;;1.00;0.70;;;13.50;99.90;;;;;;5047538;28;20419;-77
2022/09/05 02:45:01;;;;;;;0.70;0.70;;;13.50;99.90;;;;;;5066625;28;20426;-77
2022/09/05 02:47:58;;;;;;;0.75;0.75;;;13.30;99.90;;;;;;5068482;28;20423;-77
2022/09/05 02:50:37;;;;;;;0.82;0.82;;;13.30;99.90;;;;;;5048744;28;20482;-76
2022/09/05 02:53:25;;;;;;;0.75;0.75;;;13.30;99.90;;;;;;5059260;28;20427;-76
2022/09/05 02:56:25;;;;;;;0.55;0.55;;;13.30;99.90;;;;;;5047800;28;20427;-76
2022/09/05 02:59:38;;;;;;;0.70;0.70;;;13.30;99.90;;;;;;5070109;28;20435;-76
2022/09/05 03:02:07;;;;;;;0.80;0.80;;;13.40;99.90;;;;;;5061044;28;20429;-76
2022/09/05 03:05:24;;;;;;;0.88;0.88;;;13.50;99.90;;;;;;5049196;28;20540;-77
2022/09/05 03:08:21;;;;;;;0.70;0.70;;;13.60;99.90;;;;;;4951568;29;20461;-77
2022/09/05 03:11:07;;;;;;;0.70;0.70;;;13.70;99.90;;;;;;4947611;28;20442;-77
2022/09/05 03:14:01;;;;;;;0.90;0.90;;;13.70;99.90;;;;;;4956320;28;20442;-76
2022/09/05 03:17:04;;;;;;;0.88;0.88;;;13.70;99.90;;;;;;4945062;28;20448;-76
2022/09/05 03:20:07;;;;;;;0.70;0.70;;;13.80;99.90;;;;;;4966637;28;20442;-76
2022/09/05 03:22:49;;;;;;;0.60;0.60;;;14.00;99.90;;;;;;4973686;28;20448;-77
2022/09/05 03:25:59;;;;;;;1.00;1.00;;;14.00;99.90;;;;;;4950160;28;20441;-77
2022/09/05 03:28:53;;;;;;;0.63;0.63;;;14.20;99.90;;;;;;4912245;29;20440;-77
2022/09/05 03:31:55;;;;;;;0.90;0.50;;;14.30;99.90;;;;;;4889541;29;20448;-77
2022/09/05 03:35:01;;;;;;;0.60;0.60;;;14.30;99.90;;;;;;4909508;29;20497;-77
2022/09/05 03:38:04;;;;;;;0.60;0.60;;;14.20;99.90;;;;;;4899288;29;20447;-77
2022/09/05 03:41:09;;;;;;;0.97;0.73;;;14.20;99.90;;;;;;4919692;29;20456;-77
2022/09/05 03:43:46;;;;;;;1.00;0.77;;;14.20;99.90;;;;;;4912441;28;20436;-77
2022/09/05 03:46:27;;;;;;;0.70;0.70;;;14.10;99.90;;;;;;5006110;28;20435;-77
2022/09/05 03:49:15;;;;;;;0.70;0.70;;;14.10;99.90;;;;;;5012431;28;20443;-77
2022/09/05 03:52:20;;;;;;;0.80;0.73;;;14.00;99.90;;;;;;5011579;28;21003;-77
2022/09/05 03:55:25;;;;;;;0.90;0.90;;;14.10;99.90;;;;;;5011389;28;20978;-77
2022/09/05 03:58:22;;;;;;;0.85;0.85;;;14.20;99.90;;;;;;5012332;28;20420;-77
2022/09/05 04:01:18;;;;;;;0.60;0.60;;;14.20;99.90;;;;;;5070560;28;20411;-77
2022/09/05 04:04:19;;;;;;;0.70;0.70;;;14.30;99.90;;;;;;5053594;28;20425;-77
2022/09/05 04:07:24;;;;;;;0.98;0.80;;;14.30;99.90;;;;;;5053495;28;20413;-78
2022/09/05 04:10:52;;;;;;;0.63;0.63;;;14.30;99.90;;;;;;5048648;28;20421;-77
2022/09/05 04:13:31;;;;;;;1.30;1.20;;;14.30;99.90;;;;;;5072195;28;20653;-77
2022/09/05 04:16:19;;;;;;;0.63;0.63;;;14.20;99.90;;;;;;5070621;28;20442;-77
2022/09/05 04:18:53;;;;;;;0.50;0.50;;;14.10;99.90;;;;;;5039599;28;20477;-79
2022/09/05 04:21:26;;;;;;;0.90;0.90;;;14.10;99.90;;;;;;5062670;28;20511;-77
2022/09/05 04:24:08;;;;;;;0.60;0.60;;;14.00;99.90;;;;;;5067389;28;20514;-77
2022/09/05 04:27:00;;;;;;;0.90;0.90;;;14.00;99.90;;;;;;5049763;28;20426;-78
2022/09/05 04:30:02;;;;;;;0.55;0.55;;;13.90;99.90;;;;;;5063169;28;20439;-78
2022/09/05 04:33:01;;;;;;;0.70;0.70;;;13.90;99.90;;;;;;5068035;28;20438;-78
2022/09/05 04:35:39;;;;;;;0.60;0.53;;;13.90;99.90;;;;;;5074782;28;20435;-78
2022/09/05 04:38:32;;;;;;;1.20;0.70;;;13.80;99.90;;;;;;5064404;28;20443;-78
2022/09/05 04:41:05;;;;;;;0.60;0.52;;;13.70;99.90;;;;;;5052998;28;20506;-77
2022/09/05 04:43:41;;;;;;;1.10;1.00;;;13.70;99.90;;;;;;5052219;28;20762;-78
2022/09/05 04:46:27;;;;;;;0.50;0.50;;;13.60;99.90;;;;;;5073089;28;20432;-78
2022/09/05 04:49:26;;;;;;;0.70;0.70;;;13.60;99.90;;;;;;5071112;28;20442;-78
2022/09/05 04:52:33;;;;;;;0.82;0.82;;;13.60;99.90;;;;;;5046931;28;20437;-77
2022/09/05 04:55:41;;;;;;;0.70;0.70;;;13.60;99.90;;;;;;5036426;28;20431;-77
2022/09/05 04:58:36;;;;;;;0.70;0.52;;;13.70;99.90;;;;;;4964792;28;20535;-77
2022/09/05 05:01:40;;;;;;;0.77;0.77;;;13.80;99.90;;;;;;4954818;28;20438;-78
2022/09/05 05:04:29;;;;;;;0.80;0.80;;;13.80;99.90;;;;;;4952262;28;21384;-78
2022/09/05 05:07:27;;;;;;;0.90;0.90;;;13.80;99.90;;;;;;4961412;28;20421;-78
2022/09/05 05:09:57;;;;;;;0.80;0.80;;;13.80;99.90;;;;;;4977250;28;20443;-78
2022/09/05 05:13:02;;;;;;;0.70;0.70;;;13.80;99.90;;;;;;4954440;28;20424;-78
2022/09/05 05:16:09;;;;;;;0.80;0.80;;;13.80;99.90;;;;;;4970523;28;20429;-78
2022/09/05 05:19:12;;;;;;;0.50;0.50;;;13.80;99.90;;;;;;4936189;28;20531;-78
2022/09/05 05:21:51;;;;;;;0.83;0.83;;;13.90;99.90;;;;;;4942792;28;20532;-77
2022/09/05 05:24:24;;;;;;;0.60;0.60;;;13.90;99.90;;;;;;4970490;28;20440;-78
2022/09/05 05:27:00;;;;;;;0.70;0.70;;;13.90;99.90;;;;;;4964513;28;20445;-78
2022/09/05 05:29:35;;;;;;;0.80;0.70;;;14.10;99.90;;;;;;5026444;28;20920;-78
2022/09/05 05:32:04;;;;;;;0.70;0.70;;;14.20;99.90;;;;;;5062710;28;20434;-78
2022/09/05 05:34:41;;;;;;;0.55;0.55;;;14.40;99.90;;;;;;5074247;28;20516;-77
2022/09/05 05:37:45;;;;;;;0.80;0.80;;;14.50;99.90;;;;;;5042950;28;20432;-79
2022/09/05 05:40:14;;;;;;;0.80;0.80;;;14.60;99.90;;;;;;5052350;28;20971;-81
2022/09/05 05:42:43;;;;;;;0.65;0.65;;;14.80;99.90;;;;;;5055451;28;20491;-80
2022/09/05 05:45:20;;;;;;;0.80;0.80;;;15.00;99.90;;;;;;5062143;28;20431;-81
2022/09/05 05:47:51;;;;;;;0.70;0.70;;;15.10;99.90;;;;;;5055091;28;20458;-81
2022/09/05 05:50:44;;;;;;;0.73;0.73;;;15.30;99.90;;;;;;5048201;28;20466;-80
2022/09/05 05:53:36;;;;;;;0.80;0.80;;;15.40;99.90;;;;;;5066814;28;20561;-81
2022/09/05 05:57:01;;;;;;;0.60;0.60;;;15.60;99.90;;;;;;5050242;28;20434;-80
2022/09/05 06:00:05;;;;;;;0.70;0.70;;;15.80;99.90;;;;;;5001446;28;21099;-81
2022/09/05 06:02:35;;;;;;;1.00;0.90;;;15.90;99.90;;;;;;5049395;28;20437;-80
2022/09/05 06:05:15;;;;;;;0.85;0.73;;;16.20;99.90;;;;;;5068707;28;20929;-81
2022/09/05 06:07:54;;;;;;;0.70;0.70;;;16.70;99.90;;;;;;5053478;28;20425;-81
2022/09/05 06:11:17;;;;;;;0.68;0.68;;;17.50;99.90;;;;;;5041897;28;20797;-80
2022/09/05 06:14:32;;;;;;;0.70;0.70;;;18.30;99.90;;;;;;5037367;28;20426;-81
2022/09/05 06:17:28;;;;;;;1.10;0.57;;;19.10;99.90;;;;;;5059222;28;20446;-81
2022/09/05 06:20:27;;;;;;;0.70;0.70;;;19.70;99.90;;;;;;5064394;28;20510;-81
2022/09/05 06:23:38;;;;;;;0.50;0.50;;;20.20;99.90;;;;;;5060846;28;20425;-81
2022/09/05 06:26:27;;;;;;;0.73;0.73;;;20.70;99.90;;;;;;5072812;28;20435;-81
2022/09/05 06:29:12;;;;;;;0.80;0.80;;;21.30;99.90;;;;;;5067578;28;20762;-81
2022/09/05 06:32:00;;;;;;;0.63;0.63;;;21.90;99.90;;;;;;5067555;28;20440;-82
2022/09/05 06:34:51;;;;;;;0.52;0.52;;;22.10;99.90;;;;;;5080514;28;20425;-82
2022/09/05 06:37:39;;;;;;;0.80;0.80;;;22.20;99.90;;;;;;5059657;28;20487;-83
2022/09/05 06:40:54;;;;;;;0.77;0.77;;;22.50;99.90;;;;;;5067047;28;20435;-82
2022/09/05 06:43:57;;;;;;;0.60;0.60;;;22.50;99.90;;;;;;5004639;28;20844;-81
2022/09/05 06:46:30;;;;;;;0.60;0.60;;;23.00;99.90;;;;;;5019902;28;20438;-81
2022/09/05 06:49:24;;;;;;;0.52;0.52;;;23.30;99.90;;;;;;5016673;28;21224;-82
2022/09/05 06:52:21;;;;;;;0.60;0.60;;;23.60;99.90;;;;;;5017837;28;21011;-82
2022/09/05 06:55:26;;;;;;;0.50;0.50;;;23.90;99.90;;;;;;5022215;28;20439;-82
2022/09/05 06:58:17;;;;;;;0.70;0.70;;;24.30;99.90;;;;;;5023799;28;20506;-81
2022/09/05 07:00:48;;;;;;;0.70;0.70;;;;;;;;;;5016517;28;20552;-81
2022/09/05 07:03:36;;;;;;;0.60;0.60;;;;;;;;;;5002876;28;20439;-81
2022/09/05 07:06:21;;;;;;;0.50;0.50;;;;;;;;;;5020913;28;20566;-81
2022/09/05 07:09:27;;;;;;;0.70;0.70;;;24.40;99.90;;;;;;5021673;28;20490;-81
2022/09/05 07:12:12;;;;;;;0.70;0.70;;;25.40;99.90;;;;;;5000721;28;20605;-80
2022/09/05 07:14:58;;;;;;;0.50;0.50;;;25.30;99.90;;;;;;5024405;28;20485;-81
2022/09/05 07:17:51;;;;;;;0.63;0.63;;;25.50;99.90;;;;;;5032728;28;20493;-82
2022/09/05 07:20:48;;;;;;;0.60;0.60;;;25.70;99.90;;;;;;5065078;28;20885;-80
2022/09/05 07:23:49;;;;;;;0.70;0.70;;;25.90;99.90;;;;;;5061511;28;20424;-81
2022/09/05 07:26:40;;;;;;;0.60;0.60;;;26.10;99.90;;;;;;5058387;28;20423;-81
2022/09/05 07:29:26;;;;;;;0.70;0.70;;;26.00;99.90;;;;;;5048455;28;20768;-80
2022/09/05 07:31:54;;;;;;;0.40;0.40;;;25.80;99.90;;;;;;5066060;28;20427;-81
2022/09/05 07:34:27;;;;;;;0.73;0.73;;;25.80;99.90;;;;;;5047136;28;20435;-82
2022/09/05 07:37:11;;;;;;;0.70;0.70;;;25.30;99.90;;;;;;5046705;28;20423;-82
2022/09/05 07:40:08;;;;;;;0.40;0.40;;;25.10;99.90;;;;;;5061422;28;20462;-82
2022/09/05 07:43:15;;;;;;;0.68;0.68;;;25.40;99.90;;;;;;5049988;28;20436;-81
2022/09/05 07:46:05;;;;;;;0.57;0.57;;;25.70;99.90;;;;;;5064946;28;20431;-82
2022/09/05 07:48:36;;;;;;;0.52;0.52;;;25.20;99.90;;;;;;5044021;28;20910;-81
2022/09/05 07:51:11;;;;;;;0.93;0.50;;;24.60;99.90;;;;;;5047667;28;20882;-82
2022/09/05 07:54:04;;;;;;;0.40;0.40;;;24.60;99.90;;;;;;5062393;28;20403;-81
2022/09/05 07:56:54;;;;;;;0.40;0.40;;;25.20;99.90;;;;;;5062886;28;20431;-81
2022/09/05 07:59:43;;;;;;;0.50;0.50;;;25.50;99.90;;;;;;5039363;28;20432;-82
2022/09/05 08:02:12;;;;;;;0.60;0.60;;;25.50;99.90;;;;;;5065771;28;20438;-80
2022/09/05 08:04:41;;;;;;;0.43;0.43;;;25.50;99.90;;;;;;5067364;28;20435;-81
2022/09/05 08:07:24;;;;;;;0.63;0.63;;;25.30;99.90;;;;;;5064613;28;20467;-81
2022/09/05 08:10:16;;;;;;;0.52;0.52;;;25.30;99.90;;;;;;5051439;28;20425;-81
2022/09/05 08:12:58;;;;;;;0.55;0.55;;;26.10;99.90;;;;;;5066700;28;20506;-82
2022/09/05 08:15:49;;;;;;;0.40;0.40;;;26.70;99.90;;;;;;5041775;28;20423;-81
2022/09/05 08:18:46;;;;;;;0.43;0.43;;;27.40;99.90;;;;;;5062346;28;20938;-81
2022/09/05 08:21:24;;;;;;;0.50;0.50;;;28.00;99.90;;;;;;5059462;28;20515;-81
2022/09/05 08:24:19;;;;;;;0.50;0.50;;;28.30;99.90;;;;;;5047846;28;20994;-79
2022/09/05 08:27:11;;;;;;;0.60;0.60;;;28.50;99.90;;;;;;5043535;28;20434;-79
2022/09/05 08:29:48;;;;;;;0.50;0.50;;;27.90;99.90;;;;;;5056955;28;20435;-79
2022/09/05 08:33:05;;;;;;;0.50;0.50;;;28.20;99.90;;;;;;5059287;28;20513;-79
2022/09/05 08:35:56;;;;;;;0.55;0.55;;;27.70;99.90;;;;;;5069045;28;20423;-79
2022/09/05 08:38:30;;;;;;;0.50;0.50;;;26.90;99.90;;;;;;5073914;28;20959;-79
2022/09/05 08:41:42;;;;;;;0.50;0.50;;;27.10;99.90;;;;;;5074087;28;20466;-79
2022/09/05 08:44:37;;;;;;;0.45;0.45;;;27.50;99.90;;;;;;4968147;28;20863;-79
2022/09/05 08:47:55;;;;;;;0.70;0.70;;;28.40;99.90;;;;;;4964943;28;20435;-79
2022/09/05 08:50:52;;;;;;;0.40;0.40;;;28.90;99.90;;;;;;4968094;28;20437;-79
2022/09/05 08:53:47;;;;;;;0.40;0.40;;;28.80;99.90;;;;;;4949355;28;20463;-79
2022/09/05 08:56:21;;;;;;;0.40;0.40;;;29.00;99.90;;;;;;4966366;28;20440;-78
2022/09/05 08:59:25;;;;;;;0.50;0.50;;;28.80;99.90;;;;;;4980291;28;20435;-78
2022/09/05 09:02:15;;;;;;;1.02;0.60;;;28.40;99.90;;;;;;4975399;28;21131;-79
2022/09/05 09:05:23;;;;;;;0.50;0.50;;;28.20;99.90;;;;;;4969495;28;20747;-78
2022/09/05 09:08:16;;;;;;;0.50;0.50;;;29.20;99.90;;;;;;4971601;28;20446;-78
2022/09/05 09:10:44;;;;;;;0.38;0.38;;;29.80;99.90;;;;;;4971840;28;20827;-79
2022/09/05 09:13:51;;;;;;;0.50;0.50;;;29.90;99.90;;;;;;4966055;28;20959;-78
2022/09/05 09:16:37;;;;;;;0.60;0.50;;;29.80;99.90;;;;;;4974146;28;20446;-79
2022/09/05 09:19:10;;;;;;;0.40;0.40;;;29.50;99.90;;;;;;4983782;28;20429;-78
2022/09/05 09:21:45;;;;;;;0.40;0.40;;;29.50;99.90;;;;;;5068729;28;20445;-78
2022/09/05 09:24:29;;;;;;;0.43;0.43;;;28.90;99.90;;;;;;5067989;28;20949;-79
2022/09/05 09:27:15;;;;;;;0.30;0.30;;;29.20;99.90;;;;;;5037420;28;20428;-78
2022/09/05 09:29:52;;;;;;;0.32;0.32;;;29.90;99.90;;;;;;5045248;28;20445;-79
2022/09/05 09:32:23;;;;;;;0.40;0.40;;;30.10;99.90;;;;;;5039602;28;20436;-79
2022/09/05 09:35:06;;;;;;;0.47;0.47;;;30.10;99.90;;;;;;5062562;28;20432;-79
2022/09/05 09:38:04;;;;;;;0.50;0.50;;;30.40;99.90;;;;;;5060231;28;20441;-78
2022/09/05 09:41:09;;;;;;;0.50;0.50;;;29.90;99.90;;;;;;5062870;28;20423;-78
2022/09/05 09:44:00;;;;;;;0.60;0.60;;;29.90;99.90;;;;;;4986287;28;20465;-79
2022/09/05 09:46:38;;;;;;;0.30;0.30;;;29.80;99.90;;;;;;4986262;28;20457;-79
2022/09/05 09:49:20;;;;;;;0.50;0.50;;;29.90;99.90;;;;;;4984748;28;20448;-78
2022/09/05 09:52:12;;;;;;;0.50;0.50;;;29.70;99.90;;;;;;4987472;28;20444;-79
2022/09/05 09:55:24;;;;;;;0.50;0.50;;;29.90;99.90;;;;;;4972303;28;21347;-79
2022/09/05 09:57:55;;;;;;;0.57;0.47;;;29.30;99.90;;;;;;4980336;28;20430;-79
2022/09/05 10:00:23;;;;;;;0.52;0.52;;;28.70;99.90;;;;;;4986525;28;20441;-78
2022/09/05 10:03:01;;;;;;;0.50;0.50;;;28.90;99.90;;;;;;4982502;28;20448;-78
2022/09/05 10:06:24;;;;;;;0.50;0.50;;;29.70;99.90;;;;;;4983659;28;20525;-80
2022/09/05 10:09:28;;;;;;;0.50;0.50;;;29.70;99.90;;;;;;4991014;28;20480;-79
2022/09/05 10:12:46;;;;;;;0.30;0.30;;;29.40;99.90;;;;;;4988820;28;20496;-79
2022/09/05 10:15:36;;;;;;;0.50;0.50;;;30.20;99.90;;;;;;5051759;28;20439;-79
2022/09/05 10:18:14;;;;;;;0.55;0.55;;;30.90;99.20;;;;;;5045041;28;20443;-79
2022/09/05 10:20:54;;;;;;;0.40;0.40;;;30.70;99.10;;;;;;5044414;28;20509;-79
2022/09/05 10:23:52;;;;;;;0.40;0.40;;;30.30;98.60;;;;;;5062482;28;20428;-79
2022/09/05 10:26:24;;;;;;;0.50;0.50;;;30.60;99.10;;;;;;5044290;28;20428;-79
2022/09/05 10:29:07;;;;;;;0.43;0.43;;;30.10;99.30;;;;;;5045331;28;20830;-78
2022/09/05 10:32:01;;;;;;;0.40;0.40;;;30.30;99.50;;;;;;5065757;28;20423;-79
2022/09/05 10:34:59;;;;;;;0.40;0.40;;;30.40;98.70;;;;;;5037261;28;20430;-79
2022/09/05 10:38:10;;;;;;;0.43;0.43;;;31.10;98.40;;;;;;5040908;28;20425;-79
2022/09/05 10:40:44;;;;;;;0.50;0.50;;;31.60;98.10;;;;;;5045444;28;20799;-79
2022/09/05 10:43:32;;;;;;;0.43;0.43;;;;;;;;;;5062266;28;20928;-79
2022/09/05 10:46:17;;;;;;;0.40;0.40;;;;;;;;;;5045125;28;20475;-79
2022/09/05 10:49:09;;;;;;;0.40;0.40;;;;;;;;;;5039400;28;20417;-79
2022/09/05 10:51:42;;;;;;;0.40;0.40;;;;;;;;;;5047587;28;21745;-78
2022/09/05 10:54:30;;;;;;;0.40;0.40;;;;;;;;;;5054759;28;20435;-78
2022/09/05 10:57:17;;;;;;;0.40;0.40;;;;;;;;;;5054680;28;20516;-79
2022/09/05 10:59:50;;;;;;;0.50;0.50;;;;;;;;;;5031210;28;20868;-79
2022/09/05 11:02:41;;;;;;;0.40;0.40;;;;;;;;;;5042990;28;20415;-78
2022/09/05 11:05:14;;;;;;;0.43;0.43;;;;;;;;;;5053442;28;20441;-79
2022/09/05 11:07:47;;;;;;;0.30;0.30;;;;;;;;;;5062329;28;20520;-78
2022/09/05 11:10:16;;;;;;;0.40;0.40;;;;;;;;;;5059045;28;20433;-79
2022/09/05 11:12:53;;;;;;;0.45;0.45;;;;;;;;;;5035607;28;20433;-79
2022/09/05 11:15:33;;;;;;;0.60;0.50;;;;;;;;;;5054430;28;20516;-78
2022/09/05 11:18:03;;;;;;;0.47;0.47;;;;;;;;;;5060511;28;20444;-78
2022/09/05 11:20:30;;;;;;;0.50;0.50;;;;;;;;;;5061863;28;20988;-79
2022/09/05 11:23:08;;;;;;;0.40;0.40;;;;;;;;;;5057247;28;20861;-78
2022/09/05 11:25:38;;;;;;;0.30;0.30;;;;;;;;;;5041830;28;20437;-79
2022/09/05 11:28:16;;;;;;;0.40;0.40;;;;;;;;;;5038752;28;20459;-79
2022/09/05 11:30:47;;;;;;;0.50;0.50;;;;;;;;;;5060297;28;20814;-79
2022/09/05 11:33:20;;;;;;;0.60;0.60;;;31.80;97.40;;;;;;5057550;28;20452;-78
2022/09/05 11:36:32;;;;;;;0.50;0.50;;;33.70;95.50;;;;;;5035392;28;21091;-77
2022/09/05 11:39:45;;;;;;;0.43;0.43;;;33.40;94.90;;;;;;5036166;28;20419;-76
2022/09/05 11:43:01;;;;;;;0.43;0.43;;;33.60;95.90;;;;;;5048671;28;20454;-77
2022/09/05 11:45:59;;;;;;;0.40;0.40;;;32.90;94.20;;;;;;5051976;28;20892;-79
2022/09/05 11:48:53;;;;;;;0.60;0.60;;;32.70;95.10;;;;;;5060775;28;20442;-79
2022/09/05 11:51:45;;;;;;;0.50;0.50;;;32.60;95.10;;;;;;5062416;28;20431;-76
2022/09/05 11:54:36;;;;;;;0.40;0.40;;;32.30;94.90;;;;;;5060978;28;20445;-76
2022/09/05 11:57:17;;;;;;;0.50;0.50;;;31.80;95.00;;;;;;5037882;28;20433;-77
2022/09/05 12:00:23;;;;;;;0.50;0.50;;;31.70;94.90;;;;;;5044559;28;20819;-77
2022/09/05 12:03:03;;;;;;;0.40;0.40;;;31.50;95.40;;;;;;5037371;28;20433;-77
2022/09/05 12:05:36;;;;;;;0.50;0.50;;;31.90;95.90;;;;;;5040357;28;20470;-78
2022/09/05 12:08:41;;;;;;;0.63;0.63;;;32.40;95.30;;;;;;5053307;28;20517;-77
2022/09/05 12:11:15;;;;;;;0.40;0.40;;;32.90;95.00;;;;;;5062502;28;20439;-78
2022/09/05 12:13:48;;;;;;;0.40;0.40;;;32.80;94.80;;;;;;5036454;28;20843;-78
2022/09/05 12:16:48;;;;;;;0.40;0.40;;;32.80;94.20;;;;;;5056789;28;20804;-78
2022/09/05 12:19:53;;;;;;;0.40;0.40;;;33.20;93.90;;;;;;5042219;28;20432;-77
2022/09/05 12:22:37;;;;;;;0.63;0.63;;;32.30;93.60;;;;;;5063278;28;20876;-77
2022/09/05 12:25:35;;;;;;;0.33;0.33;;;31.80;93.90;;;;;;5062940;28;20949;-77
2022/09/05 12:28:31;;;;;;;0.50;0.50;;;31.90;93.50;;;;;;5060328;28;20947;-78
2022/09/05 12:31:29;;;;;;;0.40;0.40;;;31.60;93.80;;;;;;5002894;28;20418;-77
2022/09/05 12:34:48;;;;;;;0.50;0.50;;;32.30;93.90;;;;;;5062977;28;20917;-77
2022/09/05 12:37:43;;;;;;;0.40;0.40;;;32.60;93.20;;;;;;5043362;28;20427;-77
2022/09/05 12:40:36;;;;;;;0.55;0.55;;;32.70;92.80;;;;;;5061385;28;20979;-78
2022/09/05 12:43:26;;;;;;;0.40;0.40;;;32.80;92.50;;;;;;5059125;28;20415;-78
2022/09/05 12:46:34;;;;;;;0.50;0.50;;;32.80;93.10;;;;;;5053446;28;20434;-78
2022/09/05 12:49:15;;;;;;;0.50;0.50;;;32.20;92.30;;;;;;5044989;28;21022;-79
2022/09/05 12:51:58;;;;;;;0.40;0.40;;;32.30;92.80;;;;;;5068339;28;20431;-80
2022/09/05 12:54:32;;;;;;;0.70;0.70;;;32.30;92.80;;;;;;5059822;28;20421;-79
2022/09/05 12:57:07;;;;;;;0.57;0.57;;;32.70;92.70;;;;;;5047487;28;20453;-79
2022/09/05 13:00:07;;;;;;;0.50;0.50;;;33.00;92.40;;;;;;5067819;28;20454;-79
2022/09/05 13:03:03;;;;;;;0.40;0.40;;;33.60;91.60;;;;;;5065311;28;20499;-79
2022/09/05 13:05:56;;;;;;;0.40;0.40;;;33.50;92.30;;;;;;5058846;28;20512;-77
2022/09/05 13:08:29;;;;;;;0.40;0.40;;;34.20;92.00;;;;;;5049847;28;20437;-77
2022/09/05 13:10:58;;;;;;;0.50;0.50;;;34.50;91.50;;;;;;5063540;28;20954;-78
2022/09/05 13:13:51;;;;;;;0.50;0.50;;;34.70;90.20;;;;;;5063650;28;20430;-77
2022/09/05 13:16:46;;;;;;;0.50;0.50;;;35.20;90.10;;;;;;5054542;28;20752;-78
2022/09/05 13:19:49;;;;;;;0.40;0.40;;;35.50;89.00;;;;;;5040768;28;20439;-77
2022/09/05 13:22:27;;;;;;;0.40;0.40;;;35.90;88.20;;;;;;4945043;28;20450;-77
2022/09/05 13:25:07;;;;;;;0.40;0.40;;;36.30;87.20;;;;;;4943874;28;20435;-78
2022/09/05 13:27:40;;;;;;;0.50;0.50;;;36.10;86.10;;;;;;4927128;28;20440;-79
2022/09/05 13:30:12;;;;;;;0.50;0.50;;;35.90;86.40;;;;;;4947495;28;20441;-78
2022/09/05 13:33:12;;;;;;;0.40;0.40;;;35.80;86.10;;;;;;4946429;28;20432;-79
2022/09/05 13:36:04;;;;;;;0.40;0.40;;;35.90;85.40;;;;;;4938912;28;20762;-78
2022/09/05 13:39:04;;;;;;;0.50;0.50;;;36.00;85.60;;;;;;4944437;28;20955;-79
2022/09/05 13:42:02;;;;;;;0.50;0.50;;;35.70;83.90;;;;;;4932646;28;20472;-78
2022/09/05 13:44:36;;;;;;;0.50;0.50;;;35.50;86.10;;;;;;4906607;29;20536;-78
2022/09/05 13:48:00;;;;;;;0.50;0.50;;;35.00;85.10;;;;;;4893004;29;20441;-78
2022/09/05 13:50:42;;;;;;;0.60;0.60;;;34.20;85.10;;;;;;4857939;29;20985;-79
2022/09/05 13:53:50;;;;;;;0.50;0.50;;;33.90;87.20;;;;;;4850949;29;20871;-78
2022/09/05 13:56:22;;;;;;;0.60;0.60;;;34.80;87.20;;;;;;4847046;29;20448;-78
2022/09/05 13:59:12;;;;;;;0.60;0.60;;;35.10;86.20;;;;;;4887738;29;20519;-78
2022/09/05 14:02:06;;;;;;;0.50;0.50;;;35.20;84.70;;;;;;4879507;29;20970;-78
2022/09/05 14:05:18;;;;;;;0.60;0.60;;;36.20;84.90;;;;;;4885593;29;20934;-79
2022/09/05 14:08:32;;;;;;;0.50;0.50;;;35.80;82.70;;;;;;4916435;29;20440;-79
2022/09/05 14:11:26;;;;;;;0.50;0.50;;;36.00;84.00;;;;;;4902080;29;20506;-78
2022/09/05 14:13:59;;;;;;;0.50;0.50;;;36.30;82.70;;;;;;4895552;29;20490;-78
2022/09/05 14:16:43;;;;;;;0.60;0.60;;;36.40;83.40;;;;;;4897242;29;20452;-79
2022/09/05 14:22:12;;;;;;;1.08;0.57;;;37.10;81.10;;;;;;5044470;28;20431;-78
2022/09/05 14:24:48;;;;;;;0.47;0.47;;;37.10;80.20;;;;;;5040768;28;21018;-79
2022/09/05 14:27:22;;;;;;;0.60;0.60;;;37.10;78.30;;;;;;5053306;28;20493;-79
2022/09/05 14:30:00;;;;;;;0.50;0.50;;;37.50;79.00;;;;;;5039086;28;20457;-79
2022/09/05 14:33:14;;;;;;;0.57;0.57;;;38.00;77.10;;;;;;5032956;28;20426;-78
2022/09/05 14:36:09;;;;;;;0.40;0.40;;;38.10;77.00;;;;;;5058584;28;20867;-79
2022/09/05 14:39:44;;;;;;;0.60;0.60;;;37.20;76.00;;;;;;5061806;28;20408;-76
2022/09/05 14:42:22;;;;;;;0.52;0.52;;;37.20;77.20;;;;;;4963840;28;20534;-78
2022/09/05 14:45:03;;;;;;;1.20;0.50;;;37.20;76.90;;;;;;4964539;28;20514;-78
2022/09/05 14:47:49;;;;;;;0.40;0.40;;;37.20;76.60;;;;;;4961043;28;20935;-77
2022/09/05 14:50:40;;;;;;;0.63;0.63;;;36.80;76.10;;;;;;4941996;28;20953;-78
2022/09/05 14:53:11;;;;;;;0.45;0.45;;;37.60;75.90;;;;;;4966445;28;20903;-77
2022/09/05 14:56:06;;;;;;;0.43;0.43;;;37.60;75.20;;;;;;4960994;28;20420;-78